Time;durP1;ratioP1;P1;durP2;ratioP2;P2;SDS_P1;SDS_P2;PMS_P1;PMS_P2;Temp;Humidity;BMP_temperature;BMP_pressure;BME280_temperature;BME280_humidity;BME280_pressure;Samples;Min_cycle;Max_cycle;Signal;HPM_P1;HPM_P2
2023/12/09 00:01:17;;;;;;;;;;;1.90;85.60;;;;;;4993697;28;93522;-43
2023/12/09 00:03:43;;;;;;;;;;;1.90;85.80;;;;;;5000600;28;92409;-44
2023/12/09 00:06:08;;;;;;;;;;;1.90;85.50;;;;;;4992821;28;92528;-43
2023/12/09 00:08:34;;;;;;;;;;;1.90;85.90;;;;;;5003941;28;92039;-44
2023/12/09 00:11:00;;;;;;;;;;;1.90;85.80;;;;;;4996721;28;92069;-43
2023/12/09 00:13:25;;;;;;;;;;;1.90;85.70;;;;;;4997522;28;91989;-44
2023/12/09 00:15:51;;;;;;;;;;;2.00;86.00;;;;;;4997441;28;93025;-44
2023/12/09 00:18:16;;;;;;;;;;;1.90;85.70;;;;;;4996665;28;92715;-44
2023/12/09 00:20:42;;;;;;;;;;;1.90;85.80;;;;;;4998359;28;93384;-44
2023/12/09 00:23:07;;;;;;;;;;;1.90;86.10;;;;;;4997446;28;92158;-43
2023/12/09 00:25:33;;;;;;;;;;;1.90;85.80;;;;;;4995792;28;92651;-43
2023/12/09 00:27:59;;;;;;;;;;;1.90;85.60;;;;;;4992788;28;92468;-43
2023/12/09 00:30:24;;;;;;;;;;;2.00;85.80;;;;;;5004370;28;92093;-43
2023/12/09 00:32:50;;;;;;;;;;;1.90;85.40;;;;;;4993809;28;92771;-43
2023/12/09 00:35:15;;;;;;;;;;;1.90;85.50;;;;;;4995972;28;91996;-42
2023/12/09 00:37:41;;;;;;;;;;;1.90;85.40;;;;;;4999881;28;92743;-44
2023/12/09 00:40:07;;;;;;;;;;;1.90;85.80;;;;;;4995247;28;93421;-45
2023/12/09 00:42:32;;;;;;;;;;;1.90;85.70;;;;;;4995943;28;92909;-43
2023/12/09 00:44:58;;;;;;;;;;;1.90;85.60;;;;;;4990400;28;92386;-43
2023/12/09 00:47:23;;;;;;;;;;;1.90;85.60;;;;;;4996271;28;92770;-43
2023/12/09 00:49:49;;;;;;;;;;;1.90;85.60;;;;;;4999683;28;92076;-44
2023/12/09 00:52:15;;;;;;;;;;;1.90;85.70;;;;;;5002180;28;92089;-43
2023/12/09 00:54:40;;;;;;;;;;;1.90;85.60;;;;;;4994692;28;92030;-44
2023/12/09 00:57:06;;;;;;;;;;;1.90;85.60;;;;;;4994859;28;92913;-43
2023/12/09 00:59:32;;;;;;;;;;;1.90;85.60;;;;;;4992629;28;91831;-43
2023/12/09 01:01:57;;;;;;;;;;;1.90;85.60;;;;;;4995461;28;91988;-43
2023/12/09 01:04:23;;;;;;;;;;;1.90;85.70;;;;;;4995695;28;92893;-43
2023/12/09 01:06:48;;;;;;;;;;;1.90;85.70;;;;;;4988162;28;92665;-44
2023/12/09 01:09:14;;;;;;;;;;;1.90;85.70;;;;;;4999720;28;92731;-43
2023/12/09 01:11:40;;;;;;;;;;;1.90;85.80;;;;;;4997093;28;93914;-43
2023/12/09 01:14:05;;;;;;;;;;;1.90;85.60;;;;;;4998249;28;93538;-43
2023/12/09 01:16:31;;;;;;;;;;;1.90;85.60;;;;;;4997063;28;92050;-44
2023/12/09 01:18:56;;;;;;;;;;;1.90;85.70;;;;;;4995480;28;93495;-44
2023/12/09 01:21:22;;;;;;;;;;;1.90;85.60;;;;;;4996871;28;91282;-43
2023/12/09 01:23:47;;;;;;;;;;;1.90;85.70;;;;;;4994306;28;91922;-43
2023/12/09 01:26:13;;;;;;;;;;;1.90;85.90;;;;;;4995555;28;92579;-43
2023/12/09 01:28:38;;;;;;;;;;;1.90;85.60;;;;;;4996303;28;93750;-43
2023/12/09 01:31:04;;;;;;;;;;;1.80;85.80;;;;;;4993944;28;92532;-43
2023/12/09 01:33:29;;;;;;;;;;;1.80;85.50;;;;;;4991941;28;92348;-44
2023/12/09 01:35:55;;;;;;;;;;;1.80;85.80;;;;;;4997433;28;92052;-43
2023/12/09 01:38:21;;;;;;;;;;;1.90;85.70;;;;;;4994215;28;92688;-43
2023/12/09 01:40:53;;;;;;;;;;;1.90;85.80;;;;;;4995998;28;92057;-43
2023/12/09 01:43:19;;;;;;;;;;;1.90;85.60;;;;;;4992850;28;92913;-43
2023/12/09 01:45:44;;;;;;;;;;;1.80;85.70;;;;;;4994271;28;92128;-44
2023/12/09 01:48:10;;;;;;;;;;;1.90;85.70;;;;;;4995308;28;91992;-43
2023/12/09 01:50:36;;;;;;;;;;;1.90;85.60;;;;;;4993688;28;93007;-43
2023/12/09 01:53:01;;;;;;;;;;;1.90;85.80;;;;;;4992215;28;93199;-45
2023/12/09 01:55:27;;;;;;;;;;;1.80;85.90;;;;;;4997410;28;92023;-43
2023/12/09 01:57:53;;;;;;;;;;;1.80;85.80;;;;;;4993118;28;93522;-43
2023/12/09 02:00:19;;;;;;;;;;;1.80;85.70;;;;;;4997671;28;92045;-43
2023/12/09 02:02:45;;;;;;;;;;;1.80;85.60;;;;;;4997705;28;92472;-43
2023/12/09 02:05:11;;;;;;;;;;;1.80;85.90;;;;;;4998205;28;92271;-44
2023/12/09 02:07:36;;;;;;;;;;;1.80;85.70;;;;;;4998083;28;92646;-44
2023/12/09 02:10:03;;;;;;;;;;;1.90;85.60;;;;;;4991720;28;91804;-42
2023/12/09 02:12:36;;;;;;;;;;;1.80;85.60;;;;;;4990066;28;92434;-43
2023/12/09 02:15:07;;;;;;;;;;;1.80;85.70;;;;;;4996218;28;92181;-44
2023/12/09 02:17:36;;;;;;;;;;;1.80;85.80;;;;;;5000630;28;92917;-44
2023/12/09 02:20:02;;;;;;;;;;;1.80;85.80;;;;;;4991406;28;92031;-43
2023/12/09 02:22:28;;;;;;;;;;;1.80;86.00;;;;;;4995026;28;92499;-44
2023/12/09 02:24:54;;;;;;;;;;;1.80;86.20;;;;;;4991136;28;92319;-43
2023/12/09 02:27:24;;;;;;;;;;;1.80;85.90;;;;;;4992821;28;92075;-43
2023/12/09 02:29:52;;;;;;;;;;;1.80;85.70;;;;;;4993182;28;91941;-44
2023/12/09 02:32:20;;;;;;;;;;;1.80;85.60;;;;;;4996447;28;92625;-44
2023/12/09 02:34:46;;;;;;;;;;;1.80;85.70;;;;;;4993463;28;91260;-44
2023/12/09 02:37:12;;;;;;;;;;;1.80;85.80;;;;;;4993741;28;92211;-43
2023/12/09 02:39:38;;;;;;;;;;;1.80;85.80;;;;;;5005726;28;93491;-44
2023/12/09 02:42:04;;;;;;;;;;;1.80;85.80;;;;;;4998700;28;92933;-43
2023/12/09 02:44:30;;;;;;;;;;;1.80;85.80;;;;;;4994309;28;93701;-44
2023/12/09 02:46:56;;;;;;;;;;;1.80;86.00;;;;;;4996546;28;92063;-44
2023/12/09 02:49:22;;;;;;;;;;;1.80;85.80;;;;;;4995678;28;92907;-44
2023/12/09 02:51:48;;;;;;;;;;;1.80;85.60;;;;;;5000016;28;93463;-43
2023/12/09 02:54:14;;;;;;;;;;;1.80;85.90;;;;;;4996392;28;91995;-44
2023/12/09 02:56:39;;;;;;;;;;;1.80;86.00;;;;;;4993004;28;92764;-43
2023/12/09 02:59:05;;;;;;;;;;;1.80;85.90;;;;;;4997072;28;91784;-43
2023/12/09 03:01:30;;;;;;;;;;;1.80;85.80;;;;;;5007317;28;92056;-44
2023/12/09 03:03:56;;;;;;;;;;;1.80;85.90;;;;;;4995294;28;92412;-43
2023/12/09 03:06:21;;;;;;;;;;;1.80;85.90;;;;;;4993299;28;92971;-43
2023/12/09 03:08:47;;;;;;;;;;;1.80;85.70;;;;;;5001411;28;92644;-43
2023/12/09 03:11:13;;;;;;;;;;;1.80;85.90;;;;;;4993875;28;92350;-43
2023/12/09 03:13:38;;;;;;;;;;;1.80;85.90;;;;;;4998398;28;92076;-43
2023/12/09 03:16:04;;;;;;;;;;;1.80;86.00;;;;;;4997802;28;91974;-43
2023/12/09 03:18:29;;;;;;;;;;;1.80;85.90;;;;;;4996646;28;93539;-43
2023/12/09 03:20:55;;;;;;;;;;;1.80;85.80;;;;;;5000932;28;92037;-43
2023/12/09 03:23:20;;;;;;;;;;;1.70;86.30;;;;;;4999321;28;91778;-44
2023/12/09 03:25:46;;;;;;;;;;;1.70;85.80;;;;;;4994293;28;92035;-43
2023/12/09 03:28:13;;;;;;;;;;;1.70;85.90;;;;;;4995268;28;92358;-43
2023/12/09 03:30:38;;;;;;;;;;;1.80;85.70;;;;;;4994670;28;93367;-43
2023/12/09 03:33:04;;;;;;;;;;;1.80;86.00;;;;;;4997685;28;92065;-42
2023/12/09 03:35:29;;;;;;;;;;;1.80;86.00;;;;;;4999265;28;92245;-43
2023/12/09 03:37:55;;;;;;;;;;;1.80;85.90;;;;;;4997437;28;92509;-42
2023/12/09 03:40:20;;;;;;;;;;;1.80;85.90;;;;;;5000996;28;92077;-43
2023/12/09 03:42:46;;;;;;;;;;;1.70;85.70;;;;;;4993662;28;91886;-44
2023/12/09 03:45:11;;;;;;;;;;;1.70;85.80;;;;;;5000733;28;92817;-43
2023/12/09 03:47:37;;;;;;;;;;;1.70;85.90;;;;;;4997741;28;91707;-43
2023/12/09 03:50:02;;;;;;;;;;;1.70;85.90;;;;;;4995777;28;92426;-43
2023/12/09 03:52:28;;;;;;;;;;;1.70;86.00;;;;;;4994163;28;92320;-42
2023/12/09 03:54:54;;;;;;;;;;;1.70;85.90;;;;;;4993128;28;92952;-43
2023/12/09 03:57:19;;;;;;;;;;;1.70;85.70;;;;;;4993960;28;93450;-43
2023/12/09 03:59:45;;;;;;;;;;;1.70;86.10;;;;;;4995940;28;92117;-43
2023/12/09 04:02:10;;;;;;;;;;;1.70;85.80;;;;;;4995894;28;91923;-43
2023/12/09 04:04:40;;;;;;;;;;;1.70;85.80;;;;;;4998056;28;92596;-42
2023/12/09 04:07:06;;;;;;;;;;;1.70;86.10;;;;;;4994811;28;92081;-46
2023/12/09 04:09:31;;;;;;;;;;;1.70;85.90;;;;;;4995859;28;92460;-44
2023/12/09 04:11:57;;;;;;;;;;;1.70;86.10;;;;;;4997789;28;91305;-44
2023/12/09 04:14:22;;;;;;;;;;;1.70;86.00;;;;;;4995007;28;92102;-43
2023/12/09 04:16:48;;;;;;;;;;;1.70;86.00;;;;;;4999312;28;92213;-44
2023/12/09 04:19:13;;;;;;;;;;;1.70;85.80;;;;;;4998703;28;92895;-44
2023/12/09 04:21:39;;;;;;;;;;;1.70;85.80;;;;;;4997018;28;92894;-44
2023/12/09 04:24:04;;;;;;;;;;;1.70;86.10;;;;;;4993442;28;92422;-43
2023/12/09 04:26:30;;;;;;;;;;;1.70;85.90;;;;;;4999268;28;92198;-43
2023/12/09 04:28:56;;;;;;;;;;;1.70;86.00;;;;;;4995971;28;92459;-44
2023/12/09 04:31:21;;;;;;;;;;;1.70;86.10;;;;;;4994505;28;92160;-43
2023/12/09 04:33:47;;;;;;;;;;;1.70;85.80;;;;;;4995407;28;91911;-43
2023/12/09 04:36:13;;;;;;;;;;;1.70;86.20;;;;;;4995026;28;91808;-43
2023/12/09 04:38:39;;;;;;;;;;;1.70;85.90;;;;;;4992841;28;92029;-43
2023/12/09 04:41:04;;;;;;;;;;;1.70;86.00;;;;;;4996973;28;92049;-43
2023/12/09 04:43:30;;;;;;;;;;;1.70;85.90;;;;;;4995137;28;93368;-43
2023/12/09 04:45:55;;;;;;;;;;;1.60;85.90;;;;;;5003624;28;93445;-43
2023/12/09 04:48:21;;;;;;;;;;;1.70;86.10;;;;;;4995813;28;92295;-44
2023/12/09 04:50:47;;;;;;;;;;;1.70;85.90;;;;;;4996230;28;92119;-43
2023/12/09 04:53:12;;;;;;;;;;;1.70;86.00;;;;;;4994059;28;92202;-43
2023/12/09 04:55:38;;;;;;;;;;;1.70;85.80;;;;;;4991830;28;92494;-43
2023/12/09 04:58:03;;;;;;;;;;;1.70;85.90;;;;;;4995812;28;92023;-42
2023/12/09 05:00:29;;;;;;;;;;;1.70;86.00;;;;;;4997115;28;92931;-43
2023/12/09 05:02:54;;;;;;;;;;;1.70;86.10;;;;;;4991316;28;92092;-43
2023/12/09 05:05:20;;;;;;;;;;;1.70;86.00;;;;;;4995567;28;92399;-44
2023/12/09 05:07:46;;;;;;;;;;;1.60;85.90;;;;;;4991752;28;92861;-43
2023/12/09 05:10:12;;;;;;;;;;;1.70;86.00;;;;;;4996739;28;93703;-43
2023/12/09 05:12:40;;;;;;;;;;;1.60;86.00;;;;;;4993508;28;93026;-43
2023/12/09 05:15:06;;;;;;;;;;;1.70;86.00;;;;;;4990339;28;92473;-43
2023/12/09 05:17:32;;;;;;;;;;;1.60;86.00;;;;;;4992046;28;92008;-44
2023/12/09 05:19:58;;;;;;;;;;;1.60;85.90;;;;;;4995765;28;91925;-43
2023/12/09 05:22:24;;;;;;;;;;;1.60;86.00;;;;;;4991740;28;92424;-43
2023/12/09 05:24:50;;;;;;;;;;;1.70;86.10;;;;;;4996194;28;91265;-43
2023/12/09 05:27:16;;;;;;;;;;;1.70;85.90;;;;;;4995897;28;92427;-45
2023/12/09 05:29:43;;;;;;;;;;;1.70;85.90;;;;;;4993985;28;92390;-44
2023/12/09 05:32:09;;;;;;;;;;;1.70;86.00;;;;;;4998717;28;92934;-43
2023/12/09 05:34:34;;;;;;;;;;;1.70;85.90;;;;;;4993487;28;92529;-43
2023/12/09 05:37:00;;;;;;;;;;;1.60;86.30;;;;;;4997686;28;92115;-43
2023/12/09 05:39:25;;;;;;;;;;;1.60;86.20;;;;;;4994943;28;92110;-44
2023/12/09 05:41:51;;;;;;;;;;;1.60;86.00;;;;;;4998798;28;92557;-43
2023/12/09 05:44:16;;;;;;;;;;;1.60;86.10;;;;;;4992810;28;92065;-43
2023/12/09 05:46:42;;;;;;;;;;;1.60;85.90;;;;;;4997264;28;92022;-43
2023/12/09 05:49:07;;;;;;;;;;;1.60;86.00;;;;;;4995267;28;91861;-43
2023/12/09 05:51:33;;;;;;;;;;;1.60;85.80;;;;;;4992849;28;92260;-44
2023/12/09 05:53:59;;;;;;;;;;;1.60;86.20;;;;;;4994508;28;92151;-44
2023/12/09 05:56:24;;;;;;;;;;;1.60;85.90;;;;;;4995177;28;93886;-44
2023/12/09 05:58:50;;;;;;;;;;;1.60;85.90;;;;;;4995072;28;92590;-43
2023/12/09 06:01:16;;;;;;;;;;;1.70;85.90;;;;;;4992112;28;92543;-43
2023/12/09 06:03:41;;;;;;;;;;;1.60;85.90;;;;;;4997538;28;92330;-44
2023/12/09 06:06:07;;;;;;;;;;;1.60;86.00;;;;;;4993193;28;91988;-44
2023/12/09 06:08:32;;;;;;;;;;;1.60;86.30;;;;;;4996307;28;92511;-43
2023/12/09 06:10:58;;;;;;;;;;;1.60;86.00;;;;;;4994119;28;92040;-43
2023/12/09 06:13:24;;;;;;;;;;;1.60;86.00;;;;;;4997394;28;91805;-44
2023/12/09 06:15:49;;;;;;;;;;;1.60;85.90;;;;;;4998630;28;92369;-43
2023/12/09 06:18:15;;;;;;;;;;;1.60;86.20;;;;;;4996605;28;92015;-43
2023/12/09 06:20:40;;;;;;;;;;;1.60;85.80;;;;;;4994603;28;93448;-43
2023/12/09 06:23:06;;;;;;;;;;;1.60;86.20;;;;;;4994639;28;92441;-43
2023/12/09 06:25:31;;;;;;;;;;;1.60;86.00;;;;;;4991943;28;92007;-44
2023/12/09 06:27:57;;;;;;;;;;;1.60;86.10;;;;;;4996131;28;92616;-43
2023/12/09 06:30:22;;;;;;;;;;;1.60;86.00;;;;;;4997125;28;92862;-44
2023/12/09 06:32:48;;;;;;;;;;;1.60;85.90;;;;;;4995181;28;92849;-43
2023/12/09 06:35:13;;;;;;;;;;;1.60;86.00;;;;;;4997158;28;93524;-42
2023/12/09 06:37:39;;;;;;;;;;;1.60;86.40;;;;;;4996519;28;91634;-43
2023/12/09 06:40:05;;;;;;;;;;;1.60;86.00;;;;;;4990074;28;92412;-43
2023/12/09 06:42:30;;;;;;;;;;;1.60;86.10;;;;;;4987903;28;92733;-43
2023/12/09 06:44:56;;;;;;;;;;;1.60;85.90;;;;;;4991008;28;92985;-43
2023/12/09 06:47:22;;;;;;;;;;;1.60;86.10;;;;;;4992808;28;92610;-43
2023/12/09 06:49:47;;;;;;;;;;;1.60;85.90;;;;;;4991587;28;92691;-44
2023/12/09 06:52:13;;;;;;;;;;;1.60;85.90;;;;;;4994579;28;92081;-43
2023/12/09 06:54:38;;;;;;;;;;;1.60;86.00;;;;;;4991075;28;93801;-44
2023/12/09 06:57:04;;;;;;;;;;;1.60;86.10;;;;;;4999041;28;92096;-44
2023/12/09 06:59:29;;;;;;;;;;;1.60;85.90;;;;;;4988345;28;93608;-43
2023/12/09 07:01:55;;;;;;;;;;;1.60;85.80;;;;;;4993358;28;93253;-43
2023/12/09 07:04:21;;;;;;;;;;;1.60;85.90;;;;;;4990939;28;92651;-43
2023/12/09 07:06:46;;;;;;;;;;;1.60;86.00;;;;;;4992160;28;93552;-44
2023/12/09 07:09:14;;;;;;;;;;;1.60;86.00;;;;;;4988883;28;92980;-43
2023/12/09 07:11:39;;;;;;;;;;;1.60;85.90;;;;;;4998148;28;92605;-43
2023/12/09 07:14:05;;;;;;;;;;;1.60;85.90;;;;;;4996466;28;92525;-43
2023/12/09 07:16:31;;;;;;;;;;;1.50;86.00;;;;;;4991237;28;92721;-44
2023/12/09 07:18:59;;;;;;;;;;;1.50;86.20;;;;;;4993468;28;93883;-44
2023/12/09 07:21:25;;;;;;;;;;;1.60;86.00;;;;;;4994941;28;92083;-43
2023/12/09 07:23:51;;;;;;;;;;;1.60;86.00;;;;;;4996685;28;92197;-43
2023/12/09 07:26:18;;;;;;;;;;;1.60;86.00;;;;;;4992674;28;91758;-43
2023/12/09 07:28:44;;;;;;;;;;;1.60;86.20;;;;;;4994421;28;92121;-44
2023/12/09 07:31:10;;;;;;;;;;;1.60;86.00;;;;;;4997285;28;93017;-43
2023/12/09 07:33:36;;;;;;;;;;;1.60;86.00;;;;;;4994922;28;93446;-43
2023/12/09 07:36:01;;;;;;;;;;;1.60;85.90;;;;;;4993309;28;94274;-43
2023/12/09 07:38:27;;;;;;;;;;;1.60;86.00;;;;;;4993641;28;91899;-44
2023/12/09 07:40:53;;;;;;;;;;;1.60;86.40;;;;;;4996181;28;93502;-44
2023/12/09 07:43:19;;;;;;;;;;;1.60;85.90;;;;;;4998065;28;92944;-43
2023/12/09 07:45:44;;;;;;;;;;;1.60;85.90;;;;;;4989220;28;93584;-44
2023/12/09 07:48:10;;;;;;;;;;;1.60;86.10;;;;;;4993487;28;91971;-43
2023/12/09 07:50:35;;;;;;;;;;;1.60;86.20;;;;;;4997893;28;91842;-43
2023/12/09 07:53:02;;;;;;;;;;;1.60;86.10;;;;;;4993285;28;93497;-43
2023/12/09 07:55:28;;;;;;;;;;;1.60;86.10;;;;;;5000666;28;92200;-43
2023/12/09 07:57:53;;;;;;;;;;;1.60;85.80;;;;;;4994437;28;92893;-43
2023/12/09 08:00:19;;;;;;;;;;;1.60;85.80;;;;;;4996194;28;92525;-43
2023/12/09 08:02:44;;;;;;;;;;;1.60;86.10;;;;;;4995433;28;92082;-43
2023/12/09 08:05:10;;;;;;;;;;;1.60;86.20;;;;;;4988909;28;92593;-43
2023/12/09 08:07:35;;;;;;;;;;;1.60;86.10;;;;;;4997171;28;92766;-44
2023/12/09 08:10:01;;;;;;;;;;;1.60;86.20;;;;;;4995932;28;91994;-44
2023/12/09 08:12:27;;;;;;;;;;;1.60;85.90;;;;;;4996535;28;93064;-43
2023/12/09 08:14:52;;;;;;;;;;;1.60;86.00;;;;;;4994359;28;91314;-43
2023/12/09 08:17:18;;;;;;;;;;;1.60;85.80;;;;;;4995450;28;91894;-44
2023/12/09 08:19:43;;;;;;;;;;;1.60;85.80;;;;;;4994831;28;92523;-43
2023/12/09 08:22:09;;;;;;;;;;;1.60;86.00;;;;;;4998182;28;93026;-43
2023/12/09 08:24:34;;;;;;;;;;;1.60;86.00;;;;;;4997527;28;92421;-44
2023/12/09 08:27:00;;;;;;;;;;;1.60;85.80;;;;;;4997105;28;92656;-44
2023/12/09 08:29:25;;;;;;;;;;;1.60;86.00;;;;;;4991923;28;91982;-43
2023/12/09 08:31:51;;;;;;;;;;;1.60;85.70;;;;;;4995250;28;92410;-43
2023/12/09 08:34:17;;;;;;;;;;;1.60;85.90;;;;;;4996981;28;92740;-44
2023/12/09 08:36:42;;;;;;;;;;;1.60;85.90;;;;;;4991468;28;92055;-43
2023/12/09 08:39:08;;;;;;;;;;;1.60;85.70;;;;;;4993203;28;91805;-43
2023/12/09 08:41:34;;;;;;;;;;;1.60;85.70;;;;;;4996979;28;92004;-44
2023/12/09 08:43:59;;;;;;;;;;;1.60;85.90;;;;;;4998329;28;92101;-43
2023/12/09 08:46:25;;;;;;;;;;;1.50;85.80;;;;;;4992440;28;92966;-43
2023/12/09 08:48:50;;;;;;;;;;;1.60;86.10;;;;;;4995278;28;93807;-44
2023/12/09 08:51:16;;;;;;;;;;;1.60;85.70;;;;;;4995090;28;94597;-46
2023/12/09 08:53:41;;;;;;;;;;;1.60;85.90;;;;;;4995701;28;92388;-44
2023/12/09 08:56:07;;;;;;;;;;;1.60;85.90;;;;;;4996427;28;92012;-44
2023/12/09 08:58:33;;;;;;;;;;;1.60;85.80;;;;;;4991092;28;92337;-44
2023/12/09 09:00:58;;;;;;;;;;;1.60;85.90;;;;;;5003048;28;92105;-44
2023/12/09 09:03:24;;;;;;;;;;;1.60;85.80;;;;;;4993899;28;91707;-44
2023/12/09 09:05:50;;;;;;;;;;;1.60;85.80;;;;;;5000063;28;93452;-43
2023/12/09 09:08:15;;;;;;;;;;;1.50;85.90;;;;;;4994753;28;92782;-43
2023/12/09 09:10:41;;;;;;;;;;;1.60;85.80;;;;;;4995273;28;94481;-44
2023/12/09 09:13:06;;;;;;;;;;;1.60;85.90;;;;;;4992851;28;92039;-45
2023/12/09 09:15:32;;;;;;;;;;;1.60;85.80;;;;;;4998092;28;92056;-43
2023/12/09 09:17:57;;;;;;;;;;;1.60;85.90;;;;;;4996469;28;92521;-43
2023/12/09 09:20:23;;;;;;;;;;;1.60;86.00;;;;;;4997411;28;92083;-43
2023/12/09 09:22:49;;;;;;;;;;;1.60;85.90;;;;;;4993920;28;92414;-44
2023/12/09 09:25:17;;;;;;;;;;;1.60;85.90;;;;;;4995412;28;94556;-43
2023/12/09 09:27:43;;;;;;;;;;;1.60;86.00;;;;;;4995875;28;92019;-44
2023/12/09 09:30:09;;;;;;;;;;;1.60;85.80;;;;;;4998149;28;92252;-44
2023/12/09 09:32:34;;;;;;;;;;;1.60;86.60;;;;;;5001085;28;92184;-43
2023/12/09 09:35:00;;;;;;;;;;;1.60;85.70;;;;;;4994793;28;93026;-43
2023/12/09 09:37:25;;;;;;;;;;;1.60;86.30;;;;;;4999216;28;92452;-43
2023/12/09 09:39:51;;;;;;;;;;;1.60;85.90;;;;;;4999610;28;92121;-43
2023/12/09 09:42:16;;;;;;;;;;;1.60;86.10;;;;;;4997102;28;92249;-42
2023/12/09 09:45:05;;;;;;;;;;;1.60;86.10;;;;;;4995945;28;92519;-43
2023/12/09 09:47:36;;;;;;;;;;;1.60;86.10;;;;;;4993721;28;93457;-43
2023/12/09 09:50:04;;;;;;;;;;;1.60;86.10;;;;;;5003217;28;93019;-43
2023/12/09 09:52:30;;;;;;;;;;;1.60;86.10;;;;;;4992217;28;92900;-45
2023/12/09 09:54:56;;;;;;;;;;;1.60;85.70;;;;;;4995944;28;92235;-43
2023/12/09 09:57:23;;;;;;;;;;;1.60;85.80;;;;;;4994972;28;93635;-43
2023/12/09 09:59:49;;;;;;;;;;;1.60;85.80;;;;;;4997099;28;93259;-44
2023/12/09 10:02:17;;;;;;;;;;;1.60;85.70;;;;;;4989338;28;93820;-43
2023/12/09 10:04:43;;;;;;;;;;;1.60;86.30;;;;;;4993584;28;92427;-43
2023/12/09 10:07:08;;;;;;;;;;;1.60;86.10;;;;;;4995538;28;91903;-43
2023/12/09 10:09:34;;;;;;;;;;;1.70;86.00;;;;;;4998069;28;92655;-43
2023/12/09 10:12:00;;;;;;;;;;;1.60;85.70;;;;;;4992512;28;92034;-43
2023/12/09 10:14:26;;;;;;;;;;;1.60;85.90;;;;;;4989787;28;93074;-44
2023/12/09 10:16:52;;;;;;;;;;;1.60;86.30;;;;;;4997182;28;91537;-43
2023/12/09 10:19:20;;;;;;;;;;;1.60;85.90;;;;;;4998080;28;92547;-43
2023/12/09 10:21:46;;;;;;;;;;;1.60;86.20;;;;;;4995391;28;93377;-43
2023/12/09 10:24:11;;;;;;;;;;;1.60;85.90;;;;;;4987728;28;94406;-43
2023/12/09 10:26:38;;;;;;;;;;;1.60;86.20;;;;;;4992106;28;92053;-43
2023/12/09 10:29:03;;;;;;;;;;;1.60;85.90;;;;;;4998200;28;92061;-44
2023/12/09 10:31:30;;;;;;;;;;;1.60;86.00;;;;;;4995091;28;93586;-43
2023/12/09 10:33:56;;;;;;;;;;;1.60;86.10;;;;;;4994746;28;92954;-43
2023/12/09 10:36:22;;;;;;;;;;;1.60;85.90;;;;;;4993998;28;93550;-43
2023/12/09 10:38:51;;;;;;;;;;;1.60;86.10;;;;;;4990449;28;92081;-43
2023/12/09 10:41:16;;;;;;;;;;;1.60;86.00;;;;;;4992358;28;92184;-43
2023/12/09 10:43:42;;;;;;;;;;;1.60;86.00;;;;;;4994877;28;92472;-44
2023/12/09 10:46:08;;;;;;;;;;;1.60;85.90;;;;;;4994941;28;92002;-43
2023/12/09 10:48:34;;;;;;;;;;;1.60;85.80;;;;;;4992068;28;93692;-43
2023/12/09 10:50:59;;;;;;;;;;;1.60;86.30;;;;;;4991418;28;93075;-43
2023/12/09 10:53:25;;;;;;;;;;;1.50;86.00;;;;;;4996422;28;92094;-43
2023/12/09 10:55:52;;;;;;;;;;;1.50;86.10;;;;;;4991562;28;92421;-43
2023/12/09 10:58:18;;;;;;;;;;;1.60;86.30;;;;;;4992245;28;93596;-43
2023/12/09 11:00:45;;;;;;;;;;;1.60;86.30;;;;;;4995798;28;92855;-43
2023/12/09 11:03:11;;;;;;;;;;;1.60;85.90;;;;;;4994065;28;93576;-44
2023/12/09 11:05:41;;;;;;;;;;;1.60;86.10;;;;;;5000149;28;92012;-43
2023/12/09 11:08:08;;;;;;;;;;;1.60;86.00;;;;;;4991859;28;92962;-44
2023/12/09 11:10:34;;;;;;;;;;;1.60;86.10;;;;;;4998468;28;92813;-44
2023/12/09 11:13:00;;;;;;;;;;;1.60;86.30;;;;;;4992045;28;92969;-42
2023/12/09 11:15:30;;;;;;;;;;;1.60;86.30;;;;;;5005166;28;93787;-44
2023/12/09 11:18:09;;;;;;;;;;;1.60;86.50;;;;;;5000511;28;93378;-43
2023/12/09 11:20:42;;;;;;;;;;;1.60;86.00;;;;;;4997148;28;92917;-43
2023/12/09 11:23:09;;;;;;;;;;;1.60;86.10;;;;;;4993081;28;92465;-43
2023/12/09 11:25:37;;;;;;;;;;;1.60;85.80;;;;;;4995214;28;92131;-43
2023/12/09 11:28:03;;;;;;;;;;;1.70;86.10;;;;;;4992618;28;92038;-43
2023/12/09 11:30:30;;;;;;;;;;;1.60;86.20;;;;;;4993771;28;91785;-43
2023/12/09 11:32:55;;;;;;;;;;;1.60;86.90;;;;;;4996771;28;92102;-43
2023/12/09 11:35:21;;;;;;;;;;;1.60;86.10;;;;;;4998317;28;92160;-43
2023/12/09 11:37:48;;;;;;;;;;;1.60;86.40;;;;;;4997260;28;94330;-43
2023/12/09 11:40:14;;;;;;;;;;;1.60;86.20;;;;;;5002336;28;94115;-43
2023/12/09 11:42:39;;;;;;;;;;;1.60;86.30;;;;;;4996847;28;93628;-43
2023/12/09 11:45:06;;;;;;;;;;;1.60;86.00;;;;;;4996733;28;92700;-43
2023/12/09 11:47:31;;;;;;;;;;;1.60;86.20;;;;;;4993212;28;92164;-45
2023/12/09 11:49:57;;;;;;;;;;;1.60;86.30;;;;;;4996403;28;92512;-43
2023/12/09 11:52:23;;;;;;;;;;;1.60;86.10;;;;;;4997345;28;92110;-43
2023/12/09 11:54:58;;;;;;;;;;;1.60;86.50;;;;;;4998180;28;91639;-43
2023/12/09 11:57:23;;;;;;;;;;;1.60;86.30;;;;;;4997669;28;92065;-43
2023/12/09 11:59:51;;;;;;;;;;;1.60;86.50;;;;;;4999818;28;91990;-44
2023/12/09 12:02:16;;;;;;;;;;;1.60;86.40;;;;;;4997896;28;93410;-44
2023/12/09 12:04:42;;;;;;;;;;;1.60;86.60;;;;;;4993270;28;92104;-44
2023/12/09 12:07:07;;;;;;;;;;;1.60;86.50;;;;;;4993008;28;92258;-44
2023/12/09 12:09:33;;;;;;;;;;;1.60;86.30;;;;;;4994203;28;92443;-44
2023/12/09 12:11:58;;;;;;;;;;;1.60;86.60;;;;;;4994426;28;92104;-44
2023/12/09 12:14:25;;;;;;;;;;;1.60;86.50;;;;;;4990794;28;92015;-44
2023/12/09 12:16:50;;;;;;;;;;;1.60;86.50;;;;;;4995806;28;93633;-43
2023/12/09 12:19:16;;;;;;;;;;;1.60;86.40;;;;;;5002844;28;91652;-44
2023/12/09 12:21:42;;;;;;;;;;;1.60;86.50;;;;;;4996770;28;92425;-44
2023/12/09 12:24:08;;;;;;;;;;;1.60;86.60;;;;;;4992005;28;92754;-43
2023/12/09 12:26:34;;;;;;;;;;;1.60;86.30;;;;;;4991753;28;92843;-43
2023/12/09 12:29:00;;;;;;;;;;;1.60;86.50;;;;;;4995465;28;92741;-43
2023/12/09 12:31:27;;;;;;;;;;;1.60;86.50;;;;;;4994015;28;92068;-44
2023/12/09 12:33:52;;;;;;;;;;;1.60;86.50;;;;;;4996520;28;92792;-44
2023/12/09 12:36:18;;;;;;;;;;;1.60;86.50;;;;;;4991838;28;92066;-43
2023/12/09 12:38:46;;;;;;;;;;;1.60;86.50;;;;;;4994152;28;92135;-46
2023/12/09 12:41:12;;;;;;;;;;;1.60;86.80;;;;;;4997477;28;93036;-45
2023/12/09 12:43:37;;;;;;;;;;;1.60;86.70;;;;;;4994166;28;91566;-44
2023/12/09 12:46:04;;;;;;;;;;;1.60;86.80;;;;;;4995096;28;92105;-45
2023/12/09 12:48:30;;;;;;;;;;;1.60;87.10;;;;;;4995812;28;93563;-43
2023/12/09 12:50:56;;;;;;;;;;;1.60;86.70;;;;;;4996128;28;93053;-43
2023/12/09 12:53:23;;;;;;;;;;;1.60;86.70;;;;;;5000666;28;93419;-44
2023/12/09 12:55:49;;;;;;;;;;;1.60;86.70;;;;;;4997854;28;92718;-45
2023/12/09 12:58:15;;;;;;;;;;;1.60;86.70;;;;;;4996515;28;92050;-44
2023/12/09 13:00:41;;;;;;;;;;;1.60;86.70;;;;;;4992993;28;92739;-44
2023/12/09 13:03:07;;;;;;;;;;;1.60;86.60;;;;;;4995802;28;92448;-44
2023/12/09 13:05:32;;;;;;;;;;;1.60;86.60;;;;;;4995200;28;93024;-43
2023/12/09 13:07:58;;;;;;;;;;;1.60;87.00;;;;;;4996708;28;91588;-43
2023/12/09 13:10:23;;;;;;;;;;;1.60;86.60;;;;;;4994163;28;92084;-43
2023/12/09 13:12:49;;;;;;;;;;;1.60;86.70;;;;;;4992029;28;92210;-44
2023/12/09 13:15:15;;;;;;;;;;;1.60;87.00;;;;;;4995271;28;93386;-43
2023/12/09 13:17:40;;;;;;;;;;;1.60;86.80;;;;;;4996081;28;92128;-44
2023/12/09 13:20:09;;;;;;;;;;;1.60;87.10;;;;;;4990843;28;93382;-44
2023/12/09 13:22:35;;;;;;;;;;;1.60;86.90;;;;;;4990888;28;91923;-44
2023/12/09 13:25:03;;;;;;;;;;;1.60;86.60;;;;;;4999817;28;91990;-44
2023/12/09 13:27:29;;;;;;;;;;;1.60;86.60;;;;;;4989181;28;93643;-43
2023/12/09 13:29:54;;;;;;;;;;;1.60;86.70;;;;;;4997049;28;92519;-43
2023/12/09 13:32:20;;;;;;;;;;;1.60;86.80;;;;;;4996166;28;91666;-44
2023/12/09 13:34:45;;;;;;;;;;;1.60;86.80;;;;;;4992141;28;92538;-44
2023/12/09 13:37:11;;;;;;;;;;;1.60;86.80;;;;;;4995762;28;92148;-44
2023/12/09 13:39:37;;;;;;;;;;;1.60;86.80;;;;;;4995792;28;93006;-44
2023/12/09 13:42:02;;;;;;;;;;;1.60;87.00;;;;;;4987703;28;92719;-44
2023/12/09 13:44:28;;;;;;;;;;;1.60;86.80;;;;;;4998132;28;92098;-44
2023/12/09 13:46:53;;;;;;;;;;;1.60;86.80;;;;;;4991465;28;92724;-44
2023/12/09 13:49:19;;;;;;;;;;;1.70;86.60;;;;;;4991213;28;92150;-44
2023/12/09 13:51:45;;;;;;;;;;;1.70;86.70;;;;;;4995474;28;93202;-44
2023/12/09 13:54:11;;;;;;;;;;;1.60;86.60;;;;;;5000363;28;92555;-43
2023/12/09 13:56:37;;;;;;;;;;;1.70;86.80;;;;;;4995289;28;92307;-44
2023/12/09 13:59:03;;;;;;;;;;;1.70;86.70;;;;;;4999534;28;92022;-43
2023/12/09 14:01:29;;;;;;;;;;;1.70;86.70;;;;;;4999724;28;93431;-44
2023/12/09 14:03:55;;;;;;;;;;;1.70;86.80;;;;;;4995158;28;93759;-43
2023/12/09 14:06:20;;;;;;;;;;;1.70;87.00;;;;;;4991521;28;93543;-44
2023/12/09 14:08:46;;;;;;;;;;;1.70;86.70;;;;;;4993859;28;92526;-44
2023/12/09 14:11:14;;;;;;;;;;;1.70;86.70;;;;;;4995617;28;92740;-44
2023/12/09 14:13:40;;;;;;;;;;;1.60;86.80;;;;;;4990420;28;93491;-44
2023/12/09 14:16:05;;;;;;;;;;;1.60;86.70;;;;;;4995062;28;92997;-43
2023/12/09 14:18:31;;;;;;;;;;;1.70;86.70;;;;;;4990656;28;93061;-43
2023/12/09 14:20:57;;;;;;;;;;;1.70;87.10;;;;;;4993473;28;91957;-44
2023/12/09 14:23:22;;;;;;;;;;;1.60;87.00;;;;;;4992047;28;92648;-44